createdAt,value
2022-10-28T00:00:34.002Z,28.57
2022-10-28T00:01:35.719Z,28.57
2022-10-28T00:02:39.247Z,28.43
2022-10-28T00:03:43.518Z,28.86
2022-10-28T00:04:45.305Z,28.62
2022-10-28T00:05:47.037Z,28.55
2022-10-28T00:06:48.888Z,28.39
2022-10-28T00:07:50.751Z,28.74
2022-10-28T00:08:53.447Z,28.72
2022-10-28T00:09:55.196Z,28.43
2022-10-28T00:11:13.559Z,28.38
2022-10-28T00:12:15.250Z,28.35
2022-10-28T00:13:16.962Z,28.38
2022-10-28T00:14:18.712Z,28.44
2022-10-28T00:15:20.449Z,28.27
2022-10-28T00:16:25.644Z,28.59
2022-10-28T00:17:27.349Z,28.39
2022-10-28T00:18:29.716Z,29.07
2022-10-28T00:19:31.640Z,28.62
2022-10-28T00:20:33.424Z,28.47
2022-10-28T00:21:37.069Z,28.70
2022-10-28T00:22:38.892Z,28.41
2022-10-28T00:23:41.023Z,28.82
2022-10-28T00:24:42.837Z,28.57
2022-10-28T00:25:44.554Z,28.65
2022-10-28T00:26:46.361Z,28.81
2022-10-28T00:27:48.061Z,28.54
2022-10-28T00:28:54.247Z,28.90
2022-10-28T00:29:57.064Z,28.57
2022-10-28T00:31:06.872Z,28.29
2022-10-28T00:32:08.588Z,28.30
2022-10-28T00:33:10.382Z,28.49
2022-10-28T00:34:14.724Z,28.83
2022-10-28T00:35:16.612Z,28.71
2022-10-28T00:36:23.964Z,28.60
2022-10-28T00:37:25.695Z,28.54
2022-10-28T00:38:30.869Z,28.61
2022-10-28T00:39:32.776Z,28.32
2022-10-28T00:40:35.980Z,28.89
2022-10-28T00:41:40.455Z,28.43
2022-10-28T00:42:42.360Z,28.39
2022-10-28T00:43:49.558Z,28.48
2022-10-28T00:44:54.079Z,28.86
2022-10-28T00:45:56.461Z,28.58
2022-10-28T00:46:58.591Z,28.40
2022-10-28T00:48:03.179Z,28.50
2022-10-28T00:49:21.464Z,28.67
2022-10-28T00:50:51.916Z,28.39
2022-10-28T00:52:14.508Z,27.93
2022-10-28T00:53:21.087Z,28.38
2022-10-28T00:54:23.719Z,28.32
2022-10-28T00:55:26.249Z,28.27
2022-10-28T00:56:33.754Z,28.65
2022-10-28T00:57:37.731Z,28.49
2022-10-28T00:58:39.835Z,28.64
2022-10-28T00:59:46.177Z,28.73
2022-10-28T01:00:48.115Z,28.26
2022-10-28T01:01:50.142Z,28.41
2022-10-28T01:02:52.219Z,28.25
2022-10-28T01:03:56.003Z,28.59
2022-10-28T01:04:58.308Z,28.19
2022-10-28T01:06:01.503Z,28.67
2022-10-28T01:07:03.275Z,28.47
2022-10-28T01:08:06.337Z,28.68
2022-10-28T01:09:08.125Z,28.61
2022-10-28T01:10:11.689Z,28.24
2022-10-28T01:11:31.717Z,28.70
2022-10-28T01:13:15.769Z,28.14
2022-10-28T01:14:40.072Z,28.48
2022-10-28T01:15:51.896Z,28.42
2022-10-28T01:17:22.381Z,28.23
2022-10-28T01:18:34.748Z,28.16
2022-10-28T01:20:06.820Z,28.44
2022-10-28T01:21:08.502Z,28.20
2022-10-28T01:22:27.363Z,28.40
2022-10-28T01:23:49.300Z,28.54
2022-10-28T01:25:26.684Z,28.71
2022-10-28T01:26:55.914Z,27.90
2022-10-28T01:28:00.340Z,28.50
2022-10-28T01:29:24.842Z,28.67
2022-10-28T01:30:54.764Z,28.57
2022-10-28T01:32:14.720Z,28.56
2022-10-28T01:33:31.004Z,28.27
2022-10-28T01:35:04.697Z,28.68
2022-10-28T01:36:15.663Z,28.90
2022-10-28T01:37:42.088Z,28.07
2022-10-28T01:39:28.866Z,28.46
2022-10-28T01:40:37.468Z,27.95
2022-10-28T01:41:50.375Z,28.27
2022-10-28T01:43:06.485Z,28.01
2022-10-28T01:44:30.265Z,28.58
2022-10-28T01:45:40.924Z,28.58
2022-10-28T01:46:51.890Z,28.49
2022-10-28T01:48:00.765Z,28.70
2022-10-28T01:49:09.324Z,28.55
2022-10-28T01:50:37.178Z,28.58
2022-10-28T01:51:52.177Z,28.08
2022-10-28T01:52:57.460Z,28.60
2022-10-28T01:54:03.517Z,28.58
2022-10-28T01:55:17.636Z,28.35
2022-10-28T01:56:25.024Z,28.52
2022-10-28T01:57:30.215Z,28.50
2022-10-28T01:58:33.553Z,28.42
2022-10-28T01:59:38.045Z,28.38
2022-10-28T02:00:40.870Z,28.54
2022-10-28T02:01:42.974Z,28.40
2022-10-28T02:02:48.135Z,28.21
2022-10-28T02:03:51.407Z,28.27
2022-10-28T02:05:04.502Z,28.34
2022-10-28T02:06:14.473Z,28.11
2022-10-28T02:07:16.883Z,28.14
2022-10-28T02:08:18.694Z,28.60
2022-10-28T02:09:32.459Z,28.69
2022-10-28T02:10:40.957Z,28.58
2022-10-28T02:12:04.299Z,28.76
2022-10-28T02:13:13.287Z,28.38
2022-10-28T02:14:14.947Z,27.89
2022-10-28T02:16:19.952Z,28.37
2022-10-28T02:17:31.444Z,27.71
2022-10-28T02:18:42.003Z,27.69
2022-10-28T02:19:54.666Z,27.77
2022-10-28T02:21:09.895Z,28.07
2022-10-28T02:22:32.669Z,28.31
2022-10-28T02:23:46.941Z,28.31
2022-10-28T02:24:58.993Z,28.53
2022-10-28T02:26:20.818Z,28.32
2022-10-28T02:27:31.534Z,28.33
2022-10-28T02:28:33.529Z,28.59
2022-10-28T02:29:45.863Z,28.28
2022-10-28T02:30:58.261Z,28.30
2022-10-28T02:32:06.214Z,28.14
2022-10-28T02:33:12.934Z,28.18
2022-10-28T02:34:20.284Z,28.28
2022-10-28T02:35:55.669Z,28.30
2022-10-28T02:37:01.259Z,28.46
2022-10-28T02:38:07.632Z,27.95
2022-10-28T02:39:11.193Z,28.30
2022-10-28T02:40:19.627Z,28.54
2022-10-28T02:41:24.193Z,27.95
2022-10-28T02:42:29.835Z,28.25
2022-10-28T02:43:36.452Z,28.26
2022-10-28T02:44:48.981Z,28.46
2022-10-28T02:45:57.056Z,28.64
2022-10-28T02:47:05.328Z,28.02
2022-10-28T02:48:32.909Z,28.37
2022-10-28T02:49:39.540Z,28.48
2022-10-28T02:50:50.572Z,28.40
2022-10-28T02:51:58.773Z,28.55
2022-10-28T02:53:02.763Z,28.51
2022-10-28T02:54:17.670Z,28.60
2022-10-28T02:55:23.273Z,28.41
2022-10-28T02:56:26.259Z,28.42
2022-10-28T02:57:32.756Z,28.72
2022-10-28T02:58:41.022Z,28.77
2022-10-28T02:59:42.833Z,28.21
2022-10-28T03:00:45.823Z,28.47
2022-10-28T03:01:47.723Z,28.29
2022-10-28T03:02:49.571Z,28.47
2022-10-28T03:03:51.375Z,28.31
2022-10-28T03:04:53.343Z,28.58
2022-10-28T03:05:55.064Z,28.58
2022-10-28T03:06:56.845Z,28.56
2022-10-28T03:07:58.559Z,28.30
2022-10-28T03:09:00.284Z,28.10
2022-10-28T03:10:02.049Z,28.41
2022-10-28T03:11:03.822Z,28.60
2022-10-28T03:12:05.714Z,28.43
2022-10-28T03:13:07.433Z,28.56
2022-10-28T03:14:11.900Z,28.32
2022-10-28T03:15:16.291Z,28.68
2022-10-28T03:16:18.052Z,28.75
2022-10-28T03:17:19.855Z,28.47
2022-10-28T03:18:21.583Z,28.60
2022-10-28T03:19:23.461Z,28.15
2022-10-28T03:20:25.241Z,28.45
2022-10-28T03:21:26.997Z,28.54
2022-10-28T03:22:28.758Z,28.51
2022-10-28T03:23:30.627Z,28.73
2022-10-28T03:24:32.439Z,28.44
2022-10-28T03:25:34.135Z,28.82
2022-10-28T03:26:35.890Z,28.38
2022-10-28T03:27:41.144Z,28.33
2022-10-28T03:28:42.889Z,28.42
2022-10-28T03:29:45.992Z,28.53
2022-10-28T03:30:48.046Z,28.78
2022-10-28T03:31:49.803Z,28.45
2022-10-28T03:32:51.883Z,28.60
2022-10-28T03:33:53.888Z,28.75
2022-10-28T03:34:55.581Z,28.48
2022-10-28T03:35:57.414Z,28.67
2022-10-28T03:36:59.103Z,28.55
2022-10-28T03:38:00.904Z,28.56
2022-10-28T03:39:02.779Z,28.52
2022-10-28T03:40:07.958Z,28.27
2022-10-28T03:41:09.956Z,28.64
2022-10-28T03:42:11.660Z,28.60
2022-10-28T03:43:13.374Z,28.62
2022-10-28T03:44:15.156Z,28.90
2022-10-28T03:45:17.301Z,28.60
2022-10-28T03:46:19.106Z,28.49
2022-10-28T03:47:20.829Z,28.61
2022-10-28T03:48:22.682Z,28.69
2022-10-28T03:49:24.461Z,28.28
2022-10-28T03:50:26.194Z,28.45
2022-10-28T03:51:27.943Z,28.58
2022-10-28T03:52:29.640Z,28.63
2022-10-28T03:53:31.677Z,28.41
2022-10-28T03:54:33.406Z,28.45
2022-10-28T03:55:35.192Z,28.51
2022-10-28T03:56:36.978Z,28.30
2022-10-28T03:57:38.680Z,28.55
2022-10-28T03:58:41.469Z,28.52
2022-10-28T03:59:44.744Z,28.74
2022-10-28T04:00:50.852Z,28.57
2022-10-28T04:01:52.710Z,28.48
2022-10-28T04:02:54.923Z,28.79
2022-10-28T04:03:56.792Z,28.71
2022-10-28T04:04:58.502Z,28.70
2022-10-28T04:06:00.232Z,28.92
2022-10-28T04:07:01.972Z,28.96
2022-10-28T04:08:03.813Z,28.45
2022-10-28T04:09:05.660Z,28.73
2022-10-28T04:10:07.615Z,28.42
2022-10-28T04:11:09.421Z,29.15
2022-10-28T04:12:11.581Z,28.97
2022-10-28T04:13:13.800Z,29.00
2022-10-28T04:14:15.691Z,28.77
2022-10-28T04:15:17.548Z,28.68
2022-10-28T04:16:19.314Z,29.00
2022-10-28T04:17:21.114Z,28.97
2022-10-28T04:18:22.843Z,28.74
2022-10-28T04:19:24.551Z,28.60
2022-10-28T04:20:27.404Z,28.58
2022-10-28T04:21:29.111Z,28.55
2022-10-28T04:22:30.916Z,28.77
2022-10-28T04:23:32.759Z,28.96
2022-10-28T04:24:34.468Z,28.69
2022-10-28T04:25:36.147Z,28.61
2022-10-28T04:26:38.129Z,28.88
2022-10-28T04:27:39.851Z,28.78
2022-10-28T04:28:41.611Z,28.73
2022-10-28T04:29:43.292Z,28.66
2022-10-28T04:30:47.582Z,29.07
2022-10-28T04:31:52.158Z,28.67
2022-10-28T04:32:54.273Z,28.74
2022-10-28T04:33:55.966Z,28.89
2022-10-28T04:34:57.671Z,28.92
2022-10-28T04:35:59.449Z,28.68
2022-10-28T04:37:01.147Z,28.51
2022-10-28T04:38:02.861Z,28.88
2022-10-28T04:39:04.673Z,28.70
2022-10-28T04:40:07.795Z,28.49
2022-10-28T04:41:13.636Z,28.59
2022-10-28T04:42:15.634Z,28.76
2022-10-28T04:43:17.559Z,28.75
2022-10-28T04:44:19.307Z,28.89
2022-10-28T04:45:21.089Z,28.63
2022-10-28T04:46:23.082Z,28.96
2022-10-28T04:47:24.867Z,28.72
2022-10-28T04:48:26.637Z,28.98
2022-10-28T04:49:28.412Z,28.63
2022-10-28T04:50:30.179Z,28.59
2022-10-28T04:51:32.017Z,28.63
2022-10-28T04:52:33.850Z,28.60
2022-10-28T04:53:35.568Z,28.89
2022-10-28T04:54:37.317Z,28.71
2022-10-28T04:55:39.197Z,28.59
2022-10-28T04:56:40.908Z,28.58
2022-10-28T04:57:42.789Z,28.78
2022-10-28T04:58:44.508Z,28.48
2022-10-28T04:59:46.891Z,28.52
2022-10-28T05:00:48.710Z,28.85
2022-10-28T05:01:50.598Z,28.52
2022-10-28T05:02:52.426Z,28.67
2022-10-28T05:03:54.712Z,28.55
2022-10-28T05:05:00.378Z,29.08
2022-10-28T05:06:02.771Z,28.53
2022-10-28T05:07:04.535Z,28.69
2022-10-28T05:08:06.827Z,28.88
2022-10-28T05:09:08.552Z,28.69
2022-10-28T05:10:12.167Z,28.68
2022-10-28T05:11:13.930Z,28.56
2022-10-28T05:12:15.633Z,28.79
2022-10-28T05:13:18.560Z,28.62
2022-10-28T05:14:20.281Z,28.59
2022-10-28T05:15:22.091Z,28.92
2022-10-28T05:16:23.846Z,28.55
2022-10-28T05:17:25.976Z,28.40
2022-10-28T05:18:27.706Z,28.27
2022-10-28T05:19:29.385Z,28.64
2022-10-28T05:20:31.152Z,28.48
2022-10-28T05:21:32.854Z,28.26
2022-10-28T05:22:34.626Z,28.47
2022-10-28T05:23:36.338Z,28.24
2022-10-28T05:24:38.028Z,28.31
2022-10-28T05:25:40.868Z,28.50
2022-10-28T05:26:42.599Z,28.28
2022-10-28T05:27:44.469Z,28.42
2022-10-28T05:28:52.048Z,28.06
2022-10-28T05:29:53.761Z,28.12
2022-10-28T05:30:55.573Z,28.16
2022-10-28T05:31:57.445Z,27.86
2022-10-28T05:33:03.963Z,27.83
2022-10-28T05:34:05.776Z,27.82
2022-10-28T05:35:08.667Z,27.95
2022-10-28T05:36:10.668Z,27.67
2022-10-28T05:37:12.407Z,27.78
2022-10-28T05:38:14.624Z,27.84
2022-10-28T05:39:17.271Z,27.76
2022-10-28T05:40:19.287Z,27.53
2022-10-28T05:41:23.165Z,27.90
2022-10-28T05:42:25.445Z,27.70
2022-10-28T05:43:27.283Z,27.70
2022-10-28T05:44:28.999Z,27.81
2022-10-28T05:45:31.016Z,27.81
2022-10-28T05:46:32.765Z,27.62
2022-10-28T05:47:36.516Z,27.71
2022-10-28T05:48:40.972Z,27.48
2022-10-28T05:49:42.672Z,27.83
2022-10-28T05:50:44.428Z,27.67
2022-10-28T05:51:48.977Z,27.53
2022-10-28T05:52:53.702Z,28.11
2022-10-28T05:53:55.545Z,27.27
2022-10-28T05:54:57.217Z,27.45
2022-10-28T05:55:58.900Z,27.47
2022-10-28T05:57:00.629Z,27.70
2022-10-28T05:58:03.183Z,27.50
2022-10-28T05:59:04.881Z,27.29
2022-10-28T06:00:07.256Z,27.20
2022-10-28T06:01:14.113Z,27.52
2022-10-28T06:02:16.008Z,27.49
2022-10-28T06:03:17.840Z,27.45
2022-10-28T06:04:19.711Z,26.96
2022-10-28T06:05:21.567Z,27.20
2022-10-28T06:06:23.481Z,27.49
2022-10-28T06:07:25.269Z,27.49
2022-10-28T06:08:27.535Z,27.53
2022-10-28T06:09:29.489Z,27.56
2022-10-28T06:10:31.599Z,27.30
2022-10-28T06:11:33.592Z,27.52
2022-10-28T06:12:35.721Z,27.28
2022-10-28T06:13:37.465Z,26.98
2022-10-28T06:14:39.149Z,27.22
2022-10-28T06:15:40.970Z,27.21
2022-10-28T06:16:42.783Z,27.38
2022-10-28T06:17:47.444Z,27.35
2022-10-28T06:18:49.153Z,27.51
2022-10-28T06:19:51.147Z,27.22
2022-10-28T06:20:54.593Z,27.68
2022-10-28T06:21:56.327Z,27.12
2022-10-28T06:22:58.152Z,27.24
2022-10-28T06:23:59.872Z,27.61
2022-10-28T06:25:01.678Z,27.64
2022-10-28T06:26:04.179Z,27.39
2022-10-28T06:27:06.626Z,27.24
2022-10-28T06:28:10.372Z,27.08
2022-10-28T06:29:12.335Z,27.52
2022-10-28T06:30:14.175Z,27.17
2022-10-28T06:31:15.921Z,27.64
2022-10-28T06:32:17.684Z,27.50
2022-10-28T06:33:19.698Z,27.25
2022-10-28T06:34:21.431Z,27.56
2022-10-28T06:35:23.139Z,27.37
2022-10-28T06:36:24.850Z,27.22
2022-10-28T06:37:27.044Z,27.70
2022-10-28T06:38:28.955Z,27.65
2022-10-28T06:39:30.662Z,27.36
2022-10-28T06:40:32.428Z,27.37
2022-10-28T06:41:34.183Z,27.59
2022-10-28T06:42:35.934Z,27.15
2022-10-28T06:43:37.643Z,27.08
2022-10-28T06:44:39.356Z,27.59
2022-10-28T06:45:41.231Z,27.00
2022-10-28T06:46:44.589Z,27.25
2022-10-28T06:47:46.328Z,27.59
2022-10-28T06:48:48.146Z,27.76
2022-10-28T06:49:49.902Z,27.61
2022-10-28T06:50:51.741Z,27.38
2022-10-28T06:51:53.490Z,27.44
2022-10-28T06:52:57.197Z,27.32
2022-10-28T06:53:59.295Z,27.45
2022-10-28T06:55:01.131Z,27.91
2022-10-28T06:56:03.016Z,27.42
2022-10-28T06:57:05.148Z,27.66
2022-10-28T06:58:06.916Z,27.79
2022-10-28T06:59:08.892Z,27.53
2022-10-28T07:00:11.296Z,28.04
2022-10-28T07:01:13.027Z,27.79
2022-10-28T07:02:15.916Z,27.89
2022-10-28T07:03:19.093Z,27.53
2022-10-28T07:04:20.809Z,27.53
2022-10-28T07:05:24.937Z,27.93
2022-10-28T07:06:26.793Z,27.33
2022-10-28T07:07:28.513Z,27.53
2022-10-28T07:08:30.276Z,27.93
2022-10-28T07:09:33.615Z,27.42
2022-10-28T07:10:35.400Z,27.46
2022-10-28T07:11:37.306Z,27.48
2022-10-28T07:12:39.113Z,27.60
2022-10-28T07:13:42.531Z,27.56
2022-10-28T07:14:46.053Z,27.65
2022-10-28T07:15:59.100Z,28.05
2022-10-28T07:17:01.361Z,27.88
2022-10-28T07:18:03.106Z,27.29
2022-10-28T07:19:05.049Z,27.66
2022-10-28T07:20:07.491Z,27.65
2022-10-28T07:21:09.563Z,27.96
2022-10-28T07:22:11.314Z,27.89
2022-10-28T07:23:13.399Z,27.79
2022-10-28T07:24:15.140Z,27.42
2022-10-28T07:25:16.970Z,27.74
2022-10-28T07:26:18.820Z,28.08
2022-10-28T07:27:20.628Z,28.05
2022-10-28T07:28:24.466Z,27.56
2022-10-28T07:29:26.235Z,27.57
2022-10-28T07:30:28.854Z,27.79
2022-10-28T07:31:31.514Z,27.74
2022-10-28T07:32:33.706Z,27.48
2022-10-28T07:33:35.533Z,27.96
2022-10-28T07:34:37.270Z,27.80
2022-10-28T07:35:39.006Z,28.14
2022-10-28T07:36:40.876Z,27.83
2022-10-28T07:37:42.661Z,28.33
2022-10-28T07:38:44.396Z,28.14
2022-10-28T07:39:46.269Z,27.94
2022-10-28T07:40:48.134Z,28.41
2022-10-28T07:41:49.900Z,28.29
2022-10-28T07:42:52.405Z,27.98
2022-10-28T07:43:54.585Z,27.92
2022-10-28T07:44:56.326Z,28.27
2022-10-28T07:45:58.486Z,28.03
2022-10-28T07:47:00.210Z,27.98
2022-10-28T07:48:02.343Z,28.04
2022-10-28T07:49:04.594Z,28.29
2022-10-28T07:50:08.130Z,28.14
2022-10-28T07:51:12.117Z,28.36
2022-10-28T07:52:13.886Z,28.41
2022-10-28T07:54:22.519Z,27.93
2022-10-28T07:55:24.920Z,27.99
2022-10-28T07:56:26.653Z,28.48
2022-10-28T07:57:28.647Z,28.25
2022-10-28T07:58:30.584Z,28.35
2022-10-28T07:59:32.280Z,28.40
2022-10-28T08:00:34.171Z,27.98
2022-10-28T08:01:36.217Z,28.17
2022-10-28T08:02:38.126Z,28.37
2022-10-28T08:03:39.972Z,28.29
2022-10-28T08:04:41.687Z,28.46
2022-10-28T08:05:43.883Z,28.45
2022-10-28T08:06:45.912Z,28.46
2022-10-28T08:07:48.224Z,28.28
2022-10-28T08:08:55.333Z,28.25
2022-10-28T08:09:57.042Z,28.53
2022-10-28T08:10:58.829Z,27.98
2022-10-28T08:12:00.876Z,28.08
2022-10-28T08:13:02.838Z,28.38
2022-10-28T08:14:04.545Z,28.05
2022-10-28T08:15:06.669Z,28.09
2022-10-28T08:16:09.370Z,28.04
2022-10-28T08:17:11.318Z,28.32
2022-10-28T08:18:13.019Z,28.16
2022-10-28T08:19:14.899Z,28.28
2022-10-28T08:20:16.704Z,28.10
2022-10-28T08:21:18.431Z,28.36
2022-10-28T08:22:20.252Z,28.49
2022-10-28T08:23:21.966Z,28.43
2022-10-28T08:24:23.776Z,28.38
2022-10-28T08:25:25.605Z,28.65
2022-10-28T08:26:27.305Z,28.06
2022-10-28T08:27:29.051Z,28.44
2022-10-28T08:28:30.904Z,28.10
2022-10-28T08:29:32.804Z,28.30
2022-10-28T08:30:50.310Z,28.31
2022-10-28T08:31:56.255Z,28.05
2022-10-28T08:32:58.105Z,28.09
2022-10-28T08:33:59.873Z,27.99
2022-10-28T08:35:01.647Z,28.28
2022-10-28T08:36:03.791Z,28.47
2022-10-28T08:37:05.760Z,28.29
2022-10-28T08:38:08.123Z,28.38
2022-10-28T08:39:09.931Z,28.53
2022-10-28T08:40:13.396Z,28.72
2022-10-28T08:41:24.087Z,28.66
2022-10-28T08:42:32.018Z,27.98
2022-10-28T08:44:04.549Z,28.19
2022-10-28T08:45:21.485Z,27.90
2022-10-28T08:46:38.055Z,28.13
2022-10-28T08:49:13.272Z,28.11
2022-10-28T08:50:18.719Z,28.62
2022-10-28T08:51:38.988Z,28.56
2022-10-28T08:53:05.757Z,28.25
2022-10-28T08:54:17.380Z,28.26
2022-10-28T08:55:28.454Z,28.17
2022-10-28T08:56:46.317Z,28.50
2022-10-28T08:57:54.994Z,28.26
2022-10-28T08:59:01.220Z,28.13
2022-10-28T09:00:06.154Z,28.22
2022-10-28T09:01:18.491Z,28.61
2022-10-28T09:02:23.490Z,28.42
2022-10-28T09:03:39.239Z,28.53
2022-10-28T09:04:41.398Z,28.53
2022-10-28T09:05:47.984Z,28.48
2022-10-28T09:06:49.822Z,28.43
2022-10-28T09:07:52.411Z,28.32
2022-10-28T09:08:55.985Z,28.33
2022-10-28T09:09:57.974Z,28.50
2022-10-28T09:10:59.618Z,28.58
2022-10-28T09:12:16.247Z,28.56
2022-10-28T09:13:36.870Z,28.55
2022-10-28T09:15:01.602Z,28.06
2022-10-28T09:16:21.428Z,28.70
2022-10-28T09:17:38.025Z,28.33
2022-10-28T09:18:52.961Z,28.10
2022-10-28T09:20:07.248Z,28.47
2022-10-28T09:21:18.578Z,28.21
2022-10-28T09:22:28.949Z,28.90
2022-10-28T09:23:56.233Z,28.49
2022-10-28T09:25:05.023Z,28.72
2022-10-28T09:26:17.759Z,28.74
2022-10-28T09:27:37.393Z,28.60
2022-10-28T09:28:57.591Z,28.61
2022-10-28T09:30:31.135Z,28.15
2022-10-28T09:31:47.787Z,28.90
2022-10-28T09:32:52.985Z,28.86
2022-10-28T09:34:06.615Z,28.86
2022-10-28T09:35:19.354Z,28.48
2022-10-28T09:36:30.857Z,28.32
2022-10-28T09:37:48.613Z,28.51
2022-10-28T09:38:55.155Z,28.81
2022-10-28T09:40:02.830Z,28.95
2022-10-28T09:41:27.209Z,28.33
2022-10-28T09:43:57.322Z,28.87
2022-10-28T09:45:04.420Z,28.59
2022-10-28T09:46:13.983Z,28.62
2022-10-28T09:47:20.911Z,28.65
2022-10-28T09:48:34.513Z,28.82
2022-10-28T09:49:37.451Z,28.89
2022-10-28T09:50:39.719Z,28.45
2022-10-28T09:51:50.495Z,28.95
2022-10-28T09:53:11.234Z,28.72
2022-10-28T09:54:14.106Z,28.83
2022-10-28T09:55:20.640Z,28.51
2022-10-28T09:56:22.759Z,28.92
2022-10-28T09:57:30.745Z,28.86
2022-10-28T09:58:34.746Z,28.33
2022-10-28T09:59:36.700Z,28.81
2022-10-28T10:00:38.705Z,28.88
2022-10-28T10:01:42.798Z,28.83
2022-10-28T10:02:45.574Z,28.89
2022-10-28T10:03:50.095Z,28.78
2022-10-28T10:04:51.954Z,28.91
2022-10-28T10:05:57.235Z,29.18
2022-10-28T10:07:12.045Z,29.08
2022-10-28T10:08:19.338Z,28.61
2022-10-28T10:09:25.767Z,28.81
2022-10-28T10:10:50.306Z,29.26
2022-10-28T10:11:55.832Z,28.58
2022-10-28T10:13:02.538Z,29.10
2022-10-28T10:14:08.426Z,28.40
2022-10-28T10:15:16.779Z,29.00
2022-10-28T10:16:25.179Z,28.81
2022-10-28T10:17:32.903Z,28.89
2022-10-28T10:18:35.035Z,28.95
2022-10-28T10:20:01.420Z,29.39
2022-10-28T10:21:03.909Z,29.35
2022-10-28T10:22:05.626Z,28.89
2022-10-28T10:23:22.528Z,29.12
2022-10-28T10:24:28.469Z,29.04
2022-10-28T10:25:31.228Z,29.01
2022-10-28T10:26:33.643Z,28.79
2022-10-28T10:27:35.532Z,29.15
2022-10-28T10:28:49.295Z,29.28
2022-10-28T10:29:52.959Z,28.94
2022-10-28T10:31:00.592Z,29.40
2022-10-28T10:32:27.752Z,29.21
2022-10-28T10:33:34.923Z,29.21
2022-10-28T10:34:37.255Z,28.99
2022-10-28T10:35:39.113Z,29.05
2022-10-28T10:36:49.877Z,28.99
2022-10-28T10:37:52.778Z,29.27
2022-10-28T10:38:59.946Z,29.28
2022-10-28T10:40:31.251Z,29.14
2022-10-28T10:41:44.619Z,29.12
2022-10-28T10:42:57.598Z,29.02
2022-10-28T10:44:35.544Z,28.78
2022-10-28T10:45:37.465Z,29.21
2022-10-28T10:46:39.280Z,29.28
2022-10-28T10:47:41.250Z,29.15
2022-10-28T10:48:43.781Z,29.36
2022-10-28T10:49:45.706Z,29.06
2022-10-28T10:50:50.034Z,29.49
2022-10-28T10:51:57.931Z,29.50
2022-10-28T10:53:01.662Z,29.76
2022-10-28T10:54:03.571Z,29.55
2022-10-28T10:55:08.073Z,29.84
2022-10-28T10:56:13.177Z,29.53
2022-10-28T10:57:22.225Z,29.35
2022-10-28T10:58:27.184Z,29.08
2022-10-28T10:59:31.148Z,29.26
2022-10-28T11:00:37.635Z,29.78
2022-10-28T11:01:40.264Z,29.54
2022-10-28T11:02:50.047Z,29.52
2022-10-28T11:05:08.656Z,29.81
2022-10-28T11:06:24.713Z,29.42
2022-10-28T11:07:28.408Z,29.39
2022-10-28T11:08:41.444Z,29.90
2022-10-28T11:09:47.052Z,29.34
2022-10-28T11:11:03.970Z,29.58
2022-10-28T11:12:32.204Z,29.78
2022-10-28T11:13:35.614Z,29.45
2022-10-28T11:14:37.485Z,29.61
2022-10-28T11:15:39.350Z,29.42
2022-10-28T11:16:50.140Z,30.05
2022-10-28T11:18:21.307Z,29.31
2022-10-28T11:19:43.398Z,29.88
2022-10-28T11:21:02.421Z,29.29
2022-10-28T11:22:16.165Z,29.58
2022-10-28T11:23:23.654Z,29.39
2022-10-28T11:24:55.751Z,29.53
2022-10-28T11:26:07.026Z,29.80
2022-10-28T11:27:39.542Z,29.18
2022-10-28T11:28:50.270Z,29.74
2022-10-28T11:29:52.576Z,29.53
2022-10-28T11:31:22.051Z,29.44
2022-10-28T11:32:29.882Z,29.31
2022-10-28T11:33:41.458Z,29.85
2022-10-28T11:35:07.082Z,29.94
2022-10-28T11:36:22.095Z,29.62
2022-10-28T11:37:35.527Z,29.13
2022-10-28T11:38:56.615Z,29.75
2022-10-28T11:40:35.941Z,29.17
2022-10-28T11:41:51.289Z,29.60
2022-10-28T11:43:08.237Z,29.13
2022-10-28T11:44:23.691Z,29.76
2022-10-28T11:45:35.482Z,29.19
2022-10-28T11:46:48.539Z,29.73
2022-10-28T11:48:27.552Z,29.80
2022-10-28T11:50:09.830Z,29.86
2022-10-28T11:51:26.777Z,29.15
2022-10-28T11:52:45.110Z,29.71
2022-10-28T11:53:59.127Z,29.96
2022-10-28T11:55:14.311Z,29.40
2022-10-28T11:56:34.034Z,29.50
2022-10-28T11:58:11.222Z,29.69
2022-10-28T11:59:21.910Z,29.79
2022-10-28T12:00:48.277Z,29.28
2022-10-28T12:02:11.055Z,29.47
2022-10-28T12:03:15.858Z,29.49
2022-10-28T12:04:19.537Z,29.66
2022-10-28T12:05:30.848Z,29.95
2022-10-28T12:07:05.429Z,29.74
2022-10-28T12:08:28.591Z,29.47
2022-10-28T12:09:52.308Z,29.42
2022-10-28T12:11:07.630Z,29.68
2022-10-28T12:12:23.556Z,29.87
2022-10-28T12:13:49.354Z,29.52
2022-10-28T12:15:18.423Z,29.17
2022-10-28T12:16:38.944Z,29.50
2022-10-28T12:17:45.685Z,29.49
2022-10-28T12:18:59.197Z,29.20
2022-10-28T12:20:30.015Z,29.59
2022-10-28T12:21:38.697Z,29.48
2022-10-28T12:22:48.726Z,29.36
2022-10-28T12:23:52.967Z,29.61
2022-10-28T12:24:56.900Z,29.64
2022-10-28T12:26:00.657Z,29.66
2022-10-28T12:27:15.426Z,29.43
2022-10-28T12:28:42.940Z,29.37
2022-10-28T12:29:49.948Z,29.32
2022-10-28T12:30:52.958Z,29.21
2022-10-28T12:32:03.171Z,29.32
2022-10-28T12:33:20.513Z,29.33
2022-10-28T12:34:32.783Z,29.85
2022-10-28T12:35:39.462Z,29.60
2022-10-28T12:36:57.399Z,29.88
2022-10-28T12:38:19.399Z,29.77
2022-10-28T12:39:50.236Z,29.77
2022-10-28T12:41:18.196Z,29.02
2022-10-28T12:42:31.362Z,29.67
2022-10-28T12:43:39.150Z,29.64
2022-10-28T12:44:42.183Z,29.35
2022-10-28T12:45:47.538Z,29.58
2022-10-28T12:47:04.417Z,30.02
2022-10-28T12:48:09.034Z,29.19
2022-10-28T12:49:26.053Z,29.88
2022-10-28T12:50:52.924Z,29.46
2022-10-28T12:51:56.819Z,29.71
2022-10-28T12:53:23.839Z,29.79
2022-10-28T12:54:34.591Z,29.53
2022-10-28T12:55:59.439Z,29.44
2022-10-28T12:57:12.934Z,29.61
2022-10-28T12:58:29.518Z,29.65
2022-10-28T12:59:39.584Z,29.66
2022-10-28T13:00:45.476Z,29.45
2022-10-28T13:01:49.954Z,29.65
2022-10-28T13:03:14.577Z,29.64
2022-10-28T13:04:16.647Z,29.32
2022-10-28T13:05:27.674Z,29.89
2022-10-28T13:06:42.014Z,29.63
2022-10-28T13:07:59.117Z,29.60
2022-10-28T13:09:25.200Z,29.32
2022-10-28T13:10:27.023Z,29.94
2022-10-28T13:11:31.527Z,29.35
2022-10-28T13:13:13.514Z,29.83
2022-10-28T13:14:21.145Z,29.95
2022-10-28T13:15:43.654Z,29.92
2022-10-28T13:17:23.387Z,29.34
2022-10-28T13:18:31.302Z,29.34
2022-10-28T13:19:33.053Z,29.31
2022-10-28T13:20:47.713Z,29.25
2022-10-28T13:22:04.301Z,29.38
2022-10-28T13:23:14.960Z,29.40
2022-10-28T13:24:31.646Z,29.49
2022-10-28T13:25:42.220Z,30.10
2022-10-28T13:26:46.188Z,29.51
2022-10-28T13:27:49.010Z,29.50
2022-10-28T13:28:54.166Z,29.73
2022-10-28T13:29:59.392Z,29.68
2022-10-28T13:31:06.644Z,29.76
2022-10-28T13:32:34.068Z,29.18
2022-10-28T13:33:46.452Z,29.88
2022-10-28T13:34:48.266Z,29.70
2022-10-28T13:35:50.960Z,29.60
2022-10-28T13:37:04.551Z,29.64
2022-10-28T13:38:11.858Z,29.90
2022-10-28T13:39:29.834Z,29.50
2022-10-28T13:40:31.625Z,29.17
2022-10-28T13:41:34.676Z,29.96
2022-10-28T13:42:47.977Z,29.94
2022-10-28T13:43:49.657Z,29.91
2022-10-28T13:45:02.461Z,29.67
2022-10-28T13:46:04.391Z,29.69
2022-10-28T13:47:26.778Z,29.63
2022-10-28T13:48:28.503Z,29.63
2022-10-28T13:49:51.023Z,29.55
2022-10-28T13:51:12.646Z,29.15
2022-10-28T13:52:21.582Z,29.80
2022-10-28T13:53:28.993Z,29.67
2022-10-28T13:54:32.119Z,29.34
2022-10-28T13:55:40.629Z,29.42
2022-10-28T13:56:47.475Z,29.94
2022-10-28T13:57:52.919Z,29.80
2022-10-28T13:59:02.087Z,29.39
2022-10-28T14:00:06.904Z,29.95
2022-10-28T14:02:01.971Z,30.01
2022-10-28T14:03:20.394Z,29.42
2022-10-28T14:04:38.534Z,29.36
2022-10-28T14:05:40.438Z,29.14
2022-10-28T14:06:42.482Z,29.31
2022-10-28T14:08:21.511Z,29.52
2022-10-28T14:09:27.813Z,29.64
2022-10-28T14:10:34.317Z,29.26
2022-10-28T14:11:36.129Z,29.50
2022-10-28T14:12:43.219Z,29.73
2022-10-28T14:13:59.535Z,29.88
2022-10-28T14:15:18.134Z,29.50
2022-10-28T14:16:34.728Z,29.69
2022-10-28T14:17:39.635Z,29.60
2022-10-28T14:18:44.810Z,29.70
2022-10-28T14:19:52.795Z,29.79
2022-10-28T14:21:01.125Z,29.29
2022-10-28T14:22:07.774Z,29.35
2022-10-28T14:23:21.360Z,29.30
2022-10-28T14:24:43.673Z,29.87
2022-10-28T14:25:51.229Z,29.15
2022-10-28T14:27:08.314Z,29.23
2022-10-28T14:28:28.651Z,29.23
2022-10-28T14:29:30.483Z,29.68
2022-10-28T14:30:32.272Z,29.27
2022-10-28T14:31:39.489Z,29.65
2022-10-28T14:32:49.735Z,29.75
2022-10-28T14:34:11.372Z,29.92
2022-10-28T14:35:13.337Z,29.60